createdAt,value
2022-11-05T00:00:41.082Z,1.48
2022-11-05T00:03:27.427Z,0.90
2022-11-05T00:06:12.761Z,1.45
2022-11-05T00:08:59.762Z,0.70
2022-11-05T00:11:46.950Z,1.10
2022-11-05T00:14:32.780Z,0.80
2022-11-05T00:16:59.828Z,1.58
2022-11-05T00:19:26.650Z,0.93
2022-11-05T00:22:12.092Z,0.73
2022-11-05T00:24:57.635Z,0.73
2022-11-05T00:27:24.525Z,0.93
2022-11-05T00:29:51.488Z,0.90
2022-11-05T00:32:18.279Z,0.90
2022-11-05T00:34:45.138Z,0.70
2022-11-05T00:37:11.952Z,0.90
2022-11-05T00:39:38.814Z,0.77
2022-11-05T00:42:24.140Z,0.88
2022-11-05T00:45:02.880Z,0.52
2022-11-05T00:47:49.632Z,1.00
2022-11-05T00:50:17.222Z,0.88
2022-11-05T00:52:56.084Z,1.25
2022-11-05T00:55:41.163Z,0.73
2022-11-05T00:58:14.010Z,0.68
2022-11-05T01:00:43.458Z,1.03
2022-11-05T01:03:13.496Z,1.02
2022-11-05T01:05:52.080Z,0.93
2022-11-05T01:08:20.832Z,0.93
2022-11-05T01:10:53.382Z,0.95
2022-11-05T01:13:22.477Z,0.90
2022-11-05T01:15:51.141Z,0.80
2022-11-05T01:18:19.391Z,0.80
2022-11-05T01:20:47.123Z,1.08
2022-11-05T01:23:14.266Z,1.30
2022-11-05T01:25:43.291Z,0.80
2022-11-05T01:28:10.756Z,1.00
2022-11-05T01:30:38.259Z,0.95
2022-11-05T01:33:05.488Z,0.80
2022-11-05T01:35:32.915Z,0.93
2022-11-05T01:38:00.001Z,0.90
2022-11-05T01:40:26.903Z,1.00
2022-11-05T01:42:53.794Z,1.15
2022-11-05T01:45:29.943Z,1.17
2022-11-05T01:48:14.363Z,0.65
2022-11-05T01:50:47.641Z,0.67
2022-11-05T01:53:30.972Z,1.23
2022-11-05T01:56:07.715Z,1.20
2022-11-05T01:58:41.924Z,1.00
2022-11-05T02:01:08.922Z,1.00
2022-11-05T02:03:36.393Z,1.00
2022-11-05T02:06:04.431Z,1.30
2022-11-05T02:08:54.286Z,1.38
2022-11-05T02:11:21.332Z,1.20
2022-11-05T02:13:49.264Z,1.10
2022-11-05T02:16:24.916Z,1.00
2022-11-05T02:19:14.709Z,1.30
2022-11-05T02:22:07.867Z,1.23
2022-11-05T02:24:47.830Z,1.17
2022-11-05T02:27:36.690Z,1.42
2022-11-05T02:30:26.350Z,1.23
2022-11-05T02:33:13.426Z,1.30
2022-11-05T02:36:02.334Z,1.55
2022-11-05T02:38:57.206Z,1.13
2022-11-05T02:41:51.016Z,1.30
2022-11-05T02:44:46.531Z,1.50
2022-11-05T02:47:17.989Z,1.40
2022-11-05T02:49:54.259Z,1.50
2022-11-05T02:52:37.070Z,1.70
2022-11-05T02:55:23.946Z,1.55
2022-11-05T02:57:50.925Z,1.53
2022-11-05T03:00:56.607Z,1.50
2022-11-05T03:03:28.854Z,1.52
2022-11-05T03:06:37.599Z,1.35
2022-11-05T03:09:31.115Z,1.42
2022-11-05T03:12:19.104Z,1.87
2022-11-05T03:14:46.042Z,1.40
2022-11-05T03:17:33.802Z,1.40
2022-11-05T03:20:10.738Z,1.42
2022-11-05T03:23:01.380Z,1.20
2022-11-05T03:25:31.739Z,1.30
2022-11-05T03:28:03.985Z,1.88
2022-11-05T03:30:33.890Z,1.15
2022-11-05T03:33:06.677Z,1.60
2022-11-05T03:35:40.480Z,1.50
2022-11-05T03:38:12.854Z,1.90
2022-11-05T03:40:42.750Z,2.13
2022-11-05T03:43:09.987Z,2.00
2022-11-05T03:46:01.142Z,1.98
2022-11-05T03:48:30.971Z,2.08
2022-11-05T03:51:07.357Z,2.40
2022-11-05T03:53:43.753Z,2.80
2022-11-05T03:56:22.278Z,2.10
2022-11-05T03:58:53.378Z,2.50
2022-11-05T04:01:24.086Z,2.13
2022-11-05T04:03:51.050Z,2.30
2022-11-05T04:06:36.473Z,2.20
2022-11-05T04:09:21.944Z,2.85
2022-11-05T04:12:07.336Z,2.17
2022-11-05T04:14:34.139Z,2.22
2022-11-05T04:17:06.822Z,2.50
2022-11-05T04:19:53.675Z,2.35
2022-11-05T04:22:39.877Z,2.63
2022-11-05T04:25:07.054Z,2.25
2022-11-05T04:27:34.224Z,2.30
2022-11-05T04:30:19.720Z,2.37
2022-11-05T04:32:59.956Z,2.53
2022-11-05T04:35:30.133Z,2.35
2022-11-05T04:37:57.039Z,2.63
2022-11-05T04:40:24.338Z,2.50
2022-11-05T04:42:51.262Z,2.87
2022-11-05T04:45:18.059Z,2.90
2022-11-05T04:47:44.898Z,2.70
2022-11-05T04:50:13.311Z,2.78
2022-11-05T04:52:40.839Z,2.40
2022-11-05T04:55:08.233Z,2.73
2022-11-05T04:57:35.163Z,2.60
2022-11-05T05:00:02.480Z,2.75
2022-11-05T05:02:29.379Z,2.83
2022-11-05T05:04:56.249Z,2.75
2022-11-05T05:07:23.121Z,2.53
2022-11-05T05:09:50.269Z,2.63
2022-11-05T05:12:17.255Z,2.47
2022-11-05T05:14:43.993Z,2.75
2022-11-05T05:17:10.788Z,2.88
2022-11-05T05:19:57.662Z,2.90
2022-11-05T05:22:24.494Z,2.72
2022-11-05T05:24:52.883Z,2.85
2022-11-05T05:27:20.907Z,2.63
2022-11-05T05:29:47.652Z,2.42
2022-11-05T05:32:14.673Z,2.90
2022-11-05T05:34:41.518Z,2.67
2022-11-05T05:37:08.476Z,2.60
2022-11-05T05:39:35.332Z,2.38
2022-11-05T05:42:02.256Z,2.67
2022-11-05T05:44:29.045Z,2.60
2022-11-05T05:46:55.907Z,2.67
2022-11-05T05:49:22.787Z,2.80
2022-11-05T05:51:49.933Z,2.35
2022-11-05T05:54:16.935Z,2.70
2022-11-05T05:56:44.537Z,2.53
2022-11-05T05:59:12.334Z,2.03
2022-11-05T06:01:39.342Z,2.25
2022-11-05T06:04:06.431Z,2.17
2022-11-05T06:06:33.497Z,2.60
2022-11-05T06:09:00.397Z,2.27
2022-11-05T06:11:27.469Z,2.10
2022-11-05T06:13:54.419Z,2.33
2022-11-05T06:16:21.430Z,2.15
2022-11-05T06:18:48.395Z,2.50
2022-11-05T06:21:17.402Z,2.03
2022-11-05T06:23:45.759Z,2.10
2022-11-05T06:26:16.025Z,2.30
2022-11-05T06:28:43.378Z,2.33
2022-11-05T06:31:11.432Z,2.35
2022-11-05T06:33:38.498Z,2.40
2022-11-05T06:36:07.231Z,2.28
2022-11-05T06:38:36.111Z,2.38
2022-11-05T06:41:09.839Z,2.40
2022-11-05T06:43:37.615Z,2.50
2022-11-05T06:46:05.083Z,2.50
2022-11-05T06:48:32.113Z,2.60
2022-11-05T06:50:58.915Z,2.60
2022-11-05T06:53:26.303Z,2.83
2022-11-05T06:55:53.164Z,2.60
2022-11-05T06:58:20.322Z,2.57
2022-11-05T07:00:48.277Z,2.70
2022-11-05T07:03:15.388Z,2.88
2022-11-05T07:05:48.795Z,2.65
2022-11-05T07:08:16.047Z,3.08
2022-11-05T07:10:43.000Z,2.80
2022-11-05T07:13:10.051Z,2.45
2022-11-05T07:15:37.779Z,2.60
2022-11-05T07:18:05.407Z,3.10
2022-11-05T07:20:34.422Z,2.88
2022-11-05T07:23:11.519Z,2.87
2022-11-05T07:25:39.224Z,3.08
2022-11-05T07:28:06.809Z,3.50
2022-11-05T07:30:35.001Z,2.97
2022-11-05T07:33:02.740Z,3.33
2022-11-05T07:35:30.203Z,3.13
2022-11-05T07:37:57.125Z,2.80
2022-11-05T07:40:26.811Z,3.15
2022-11-05T07:42:59.381Z,3.72
2022-11-05T07:45:28.749Z,3.50
2022-11-05T07:47:58.665Z,3.33
2022-11-05T07:50:28.690Z,3.30
2022-11-05T07:53:03.890Z,4.00
2022-11-05T07:55:31.022Z,3.72
2022-11-05T07:57:58.204Z,4.30
2022-11-05T08:00:26.763Z,4.10
2022-11-05T08:03:02.194Z,3.75
2022-11-05T08:05:37.258Z,4.13
2022-11-05T08:08:05.196Z,3.42
2022-11-05T08:10:34.268Z,4.00
2022-11-05T08:13:01.877Z,3.50
2022-11-05T08:15:29.277Z,4.18
2022-11-05T08:18:03.962Z,4.50
2022-11-05T08:20:31.232Z,4.43
2022-11-05T08:22:58.381Z,4.47
2022-11-05T08:25:26.116Z,3.80
2022-11-05T08:27:58.549Z,4.00
2022-11-05T08:30:26.291Z,4.15
2022-11-05T08:32:58.539Z,3.50
2022-11-05T08:35:26.830Z,4.00
2022-11-05T08:38:02.988Z,3.87
2022-11-05T08:40:34.891Z,4.07
2022-11-05T08:43:04.328Z,4.35
2022-11-05T08:45:31.588Z,4.18
2022-11-05T08:48:03.623Z,4.25
2022-11-05T08:50:31.067Z,4.20
2022-11-05T08:52:58.373Z,4.13
2022-11-05T08:55:25.882Z,3.78
2022-11-05T08:58:01.379Z,3.63
2022-11-05T09:00:31.005Z,4.55
2022-11-05T09:03:02.898Z,4.00
2022-11-05T09:05:31.954Z,4.32
2022-11-05T09:08:01.427Z,4.30
2022-11-05T09:10:29.039Z,3.90
2022-11-05T09:12:56.460Z,4.28
2022-11-05T09:15:24.702Z,3.40
2022-11-05T09:17:52.073Z,4.18
2022-11-05T09:20:19.729Z,3.97
2022-11-05T09:22:46.900Z,4.47
2022-11-05T09:25:16.280Z,4.25
2022-11-05T09:27:43.720Z,3.90
2022-11-05T09:30:12.807Z,4.03
2022-11-05T09:32:39.867Z,3.53
2022-11-05T09:35:07.781Z,4.57
2022-11-05T09:37:36.114Z,4.00
2022-11-05T09:40:03.707Z,4.33
2022-11-05T09:42:38.143Z,4.40
2022-11-05T09:45:13.779Z,3.70
2022-11-05T09:47:45.215Z,4.00
2022-11-05T09:50:19.641Z,4.07
2022-11-05T09:52:46.755Z,3.80
2022-11-05T09:55:29.325Z,4.28
2022-11-05T09:58:10.938Z,4.40
2022-11-05T10:00:38.097Z,4.35
2022-11-05T10:03:10.854Z,4.00
2022-11-05T10:05:40.522Z,4.13
2022-11-05T10:08:29.645Z,4.05
2022-11-05T10:11:04.375Z,4.10
2022-11-05T10:13:37.391Z,3.60
2022-11-05T10:16:19.259Z,3.90
2022-11-05T10:18:51.221Z,3.13
2022-11-05T10:21:37.635Z,3.65
2022-11-05T10:24:15.817Z,3.30
2022-11-05T10:26:46.885Z,2.70
2022-11-05T10:29:29.714Z,3.08
2022-11-05T10:31:58.764Z,2.60
2022-11-05T10:34:31.024Z,3.13
2022-11-05T10:36:58.123Z,3.20
2022-11-05T10:39:27.948Z,2.83
2022-11-05T10:42:31.443Z,2.90
2022-11-05T10:45:35.374Z,2.40
2022-11-05T10:48:32.502Z,2.92
2022-11-05T10:50:59.787Z,2.55
2022-11-05T10:53:33.768Z,2.80
2022-11-05T10:56:00.907Z,2.38
2022-11-05T10:58:35.083Z,3.20
2022-11-05T11:01:10.836Z,2.55
2022-11-05T11:03:45.939Z,2.63
2022-11-05T11:06:21.984Z,2.70
2022-11-05T11:08:50.632Z,2.95
2022-11-05T11:11:39.600Z,2.83
2022-11-05T11:14:12.528Z,2.72
2022-11-05T11:16:45.935Z,2.35
2022-11-05T11:19:34.052Z,2.75
2022-11-05T11:22:04.294Z,3.00
2022-11-05T11:24:41.988Z,2.20
2022-11-05T11:27:13.997Z,2.38
2022-11-05T11:29:49.178Z,2.38
2022-11-05T11:32:20.349Z,2.78
2022-11-05T11:34:52.456Z,2.67
2022-11-05T11:37:28.765Z,2.13
2022-11-05T11:40:04.592Z,2.75
2022-11-05T11:42:35.209Z,2.50
2022-11-05T11:45:15.315Z,2.30
2022-11-05T11:47:48.726Z,2.65
2022-11-05T11:50:39.975Z,2.90
2022-11-05T11:53:26.414Z,2.72
2022-11-05T11:56:07.533Z,2.83
2022-11-05T11:58:40.829Z,2.30
2022-11-05T12:01:41.845Z,2.72
2022-11-05T12:04:46.094Z,2.03
2022-11-05T12:07:31.197Z,2.45
2022-11-05T12:10:04.632Z,2.90
2022-11-05T12:13:02.398Z,2.28
2022-11-05T12:15:55.906Z,2.25
2022-11-05T12:18:47.407Z,2.53
2022-11-05T12:21:58.405Z,2.70
2022-11-05T12:24:47.432Z,2.75
2022-11-05T12:27:51.603Z,2.80
2022-11-05T12:30:21.644Z,2.85
2022-11-05T12:33:15.733Z,3.27
2022-11-05T12:36:06.297Z,3.05
2022-11-05T12:39:19.508Z,3.22
2022-11-05T12:42:14.794Z,3.40
2022-11-05T12:45:02.852Z,2.90
2022-11-05T12:47:50.083Z,3.03
2022-11-05T12:50:49.255Z,2.78
2022-11-05T12:53:53.508Z,2.05
2022-11-05T12:56:38.217Z,1.85
2022-11-05T12:59:43.890Z,1.70
2022-11-05T13:02:20.682Z,1.87
2022-11-05T13:04:55.615Z,2.33
2022-11-05T13:07:36.198Z,1.60
2022-11-05T13:10:14.988Z,1.50
2022-11-05T13:12:44.299Z,1.58
2022-11-05T13:15:32.927Z,1.93
2022-11-05T13:18:06.073Z,1.77
2022-11-05T13:20:37.838Z,1.80
2022-11-05T13:23:24.362Z,2.20
2022-11-05T13:25:56.190Z,2.72
2022-11-05T13:28:44.210Z,2.63
2022-11-05T13:31:16.331Z,2.60
2022-11-05T13:33:46.318Z,2.40
2022-11-05T13:36:49.843Z,3.00
2022-11-05T13:39:28.582Z,2.50
2022-11-05T13:42:23.254Z,2.70
2022-11-05T13:45:15.502Z,2.78
2022-11-05T13:47:54.426Z,2.33
2022-11-05T13:51:06.545Z,2.95
2022-11-05T13:53:54.573Z,2.70
2022-11-05T13:56:55.637Z,2.40
2022-11-05T13:59:59.206Z,2.65
2022-11-05T14:02:35.040Z,2.90
2022-11-05T14:05:03.395Z,3.00
2022-11-05T14:07:47.331Z,2.30
2022-11-05T14:10:24.594Z,3.23
2022-11-05T14:12:54.630Z,3.00
2022-11-05T14:15:26.386Z,2.40
2022-11-05T14:18:03.611Z,2.20
2022-11-05T14:20:30.463Z,2.63
2022-11-05T14:23:25.306Z,2.57
2022-11-05T14:25:56.469Z,2.63
2022-11-05T14:28:35.539Z,2.28
2022-11-05T14:31:41.174Z,2.33
2022-11-05T14:34:11.464Z,2.47
2022-11-05T14:36:40.747Z,2.60
2022-11-05T14:39:28.543Z,2.88
2022-11-05T14:42:03.354Z,2.25
2022-11-05T14:44:35.893Z,2.05
2022-11-05T14:47:08.050Z,2.50
2022-11-05T14:49:53.186Z,2.20
2022-11-05T14:52:20.724Z,2.30
2022-11-05T14:54:54.102Z,2.30
2022-11-05T14:57:42.689Z,2.10
2022-11-05T15:00:40.948Z,2.30
2022-11-05T15:03:29.463Z,2.00
2022-11-05T15:06:08.525Z,3.25
2022-11-05T15:08:38.775Z,2.42
2022-11-05T15:11:18.844Z,1.88
2022-11-05T15:14:19.126Z,2.20
2022-11-05T15:16:53.134Z,1.90
2022-11-05T15:19:34.983Z,2.00
2022-11-05T15:22:05.934Z,1.77
2022-11-05T15:24:35.134Z,1.80
2022-11-05T15:27:34.178Z,1.75
2022-11-05T15:30:15.883Z,2.00
2022-11-05T15:32:42.943Z,2.10
2022-11-05T15:35:29.820Z,2.10
2022-11-05T15:38:02.224Z,1.65
2022-11-05T15:40:33.668Z,1.77
2022-11-05T15:43:17.470Z,1.33
2022-11-05T15:46:05.989Z,2.10
2022-11-05T15:48:33.811Z,2.10
2022-11-05T15:51:01.429Z,1.90
2022-11-05T15:54:23.966Z,2.20
2022-11-05T15:56:52.770Z,2.20
2022-11-05T15:59:22.416Z,2.17
2022-11-05T16:01:51.355Z,2.35
2022-11-05T16:04:29.316Z,2.15
2022-11-05T16:07:09.674Z,2.13
2022-11-05T16:09:40.275Z,2.30
2022-11-05T16:12:19.616Z,2.28
2022-11-05T16:15:25.638Z,2.20
2022-11-05T16:18:00.287Z,2.08
2022-11-05T16:20:31.504Z,2.15
2022-11-05T16:23:04.161Z,2.60
2022-11-05T16:25:37.835Z,1.92
2022-11-05T16:28:26.689Z,2.55
2022-11-05T16:31:05.345Z,2.42
2022-11-05T16:33:51.153Z,1.95
2022-11-05T16:36:18.791Z,2.73
2022-11-05T16:38:45.854Z,2.10
2022-11-05T16:41:18.333Z,2.55
2022-11-05T16:43:57.062Z,2.20
2022-11-05T16:46:30.362Z,2.30
2022-11-05T16:48:58.848Z,2.00
2022-11-05T16:51:28.369Z,2.25
2022-11-05T16:53:55.384Z,2.50
2022-11-05T16:56:23.385Z,2.15
2022-11-05T16:58:50.610Z,2.17
2022-11-05T17:01:21.730Z,2.70
2022-11-05T17:03:50.329Z,2.25
2022-11-05T17:06:18.944Z,2.47
2022-11-05T17:08:46.607Z,2.47
2022-11-05T17:11:16.296Z,2.25
2022-11-05T17:13:43.696Z,2.60
2022-11-05T17:16:13.230Z,2.60
2022-11-05T17:18:41.196Z,2.40
2022-11-05T17:21:09.931Z,2.30
2022-11-05T17:23:37.443Z,2.67
2022-11-05T17:26:11.424Z,2.50
2022-11-05T17:28:39.148Z,3.08
2022-11-05T17:31:09.343Z,2.45
2022-11-05T17:33:36.288Z,2.97
2022-11-05T17:36:13.476Z,2.92
2022-11-05T17:38:40.752Z,2.60
2022-11-05T17:41:12.883Z,2.92
2022-11-05T17:43:40.117Z,3.20
2022-11-05T17:46:13.560Z,2.97
2022-11-05T17:48:41.049Z,2.65
2022-11-05T17:51:12.763Z,2.80
2022-11-05T17:53:39.728Z,2.78
2022-11-05T17:56:10.821Z,2.95
2022-11-05T17:58:38.023Z,3.08
2022-11-05T18:01:05.844Z,2.47
2022-11-05T18:03:33.193Z,2.63
2022-11-05T18:06:06.932Z,2.65
2022-11-05T18:08:34.140Z,3.00
2022-11-05T18:11:01.057Z,2.80
2022-11-05T18:13:27.975Z,3.20
2022-11-05T18:15:55.034Z,3.30
2022-11-05T18:18:22.434Z,2.78
2022-11-05T18:20:49.543Z,3.55
2022-11-05T18:23:16.565Z,2.60
2022-11-05T18:25:43.915Z,2.88
2022-11-05T18:28:11.190Z,3.03
2022-11-05T18:30:39.681Z,2.53
2022-11-05T18:33:07.259Z,3.10
2022-11-05T18:35:34.559Z,3.10
2022-11-05T18:38:01.610Z,3.10
2022-11-05T18:40:28.407Z,3.13
2022-11-05T18:42:55.414Z,3.80
2022-11-05T18:45:26.893Z,3.10
2022-11-05T18:47:56.350Z,3.20
2022-11-05T18:50:23.218Z,3.28
2022-11-05T18:52:50.033Z,2.83
2022-11-05T18:55:16.885Z,2.65
2022-11-05T18:57:43.733Z,3.13
2022-11-05T19:00:11.322Z,2.78
2022-11-05T19:02:38.534Z,2.92
2022-11-05T19:07:53.229Z,2.72
2022-11-05T19:10:20.199Z,3.15
2022-11-05T19:12:47.098Z,3.42
2022-11-05T19:15:13.949Z,3.25
2022-11-05T19:17:41.229Z,3.57
2022-11-05T19:20:09.273Z,2.88
2022-11-05T19:22:36.191Z,3.25
2022-11-05T19:25:03.755Z,3.25
2022-11-05T19:27:30.963Z,3.00
2022-11-05T19:29:57.754Z,2.77
2022-11-05T19:32:24.762Z,3.00
2022-11-05T19:34:51.616Z,2.75
2022-11-05T19:37:19.474Z,3.28
2022-11-05T19:39:46.491Z,3.08
2022-11-05T19:42:13.422Z,3.00
2022-11-05T19:44:41.083Z,2.92
2022-11-05T19:47:08.202Z,3.13
2022-11-05T19:49:34.974Z,3.40
2022-11-05T19:52:01.976Z,3.03
2022-11-05T19:54:29.024Z,2.73
2022-11-05T19:56:56.095Z,2.80
2022-11-05T19:59:22.928Z,2.80
2022-11-05T20:01:50.244Z,2.80
2022-11-05T20:04:17.123Z,3.05
2022-11-05T20:06:43.956Z,3.70
2022-11-05T20:09:22.658Z,3.00
2022-11-05T20:11:54.775Z,3.00
2022-11-05T20:14:23.224Z,3.38
2022-11-05T20:16:50.513Z,3.00
2022-11-05T20:19:19.894Z,2.80
2022-11-05T20:21:47.646Z,3.17
2022-11-05T20:24:22.469Z,2.88
2022-11-05T20:26:51.881Z,3.38
2022-11-05T20:29:18.862Z,3.10
2022-11-05T20:31:45.800Z,3.57
2022-11-05T20:34:12.736Z,3.55
2022-11-05T20:36:40.120Z,3.00
2022-11-05T20:39:07.415Z,3.45
2022-11-05T20:41:34.335Z,3.15
2022-11-05T20:44:01.646Z,3.60
2022-11-05T20:46:28.686Z,3.47
2022-11-05T20:48:56.128Z,4.07
2022-11-05T20:51:24.687Z,3.67
2022-11-05T20:54:00.252Z,3.67
2022-11-05T20:56:29.855Z,3.23
2022-11-05T20:58:58.924Z,3.10
2022-11-05T21:01:27.848Z,3.40
2022-11-05T21:03:55.213Z,3.53
2022-11-05T21:06:22.736Z,3.05
2022-11-05T21:08:51.312Z,2.80
2022-11-05T21:11:19.956Z,3.10
2022-11-05T21:13:47.190Z,2.58
2022-11-05T21:16:18.512Z,3.67
2022-11-05T21:18:46.817Z,3.65
2022-11-05T21:21:17.767Z,3.23
2022-11-05T21:23:44.678Z,4.00
2022-11-05T21:26:14.007Z,3.60
2022-11-05T21:28:42.052Z,3.50
2022-11-05T21:31:09.381Z,3.63
2022-11-05T21:33:36.738Z,3.57
2022-11-05T21:36:12.712Z,3.88
2022-11-05T21:38:40.717Z,3.65
2022-11-05T21:41:08.828Z,3.58
2022-11-05T21:43:38.002Z,3.78
2022-11-05T21:46:05.256Z,3.90
2022-11-05T21:48:32.898Z,4.15
2022-11-05T21:51:18.641Z,4.00
2022-11-05T21:54:04.285Z,3.38
2022-11-05T21:56:50.873Z,3.40
2022-11-05T21:59:41.549Z,3.80
2022-11-05T22:02:11.467Z,3.70
2022-11-05T22:04:43.927Z,3.15
2022-11-05T22:07:15.463Z,3.20
2022-11-05T22:09:42.353Z,3.47
2022-11-05T22:12:09.701Z,3.87
2022-11-05T22:14:36.800Z,3.20
2022-11-05T22:17:04.149Z,3.35
2022-11-05T22:19:31.757Z,3.08
2022-11-05T22:21:58.797Z,4.22
2022-11-05T22:24:28.259Z,3.37
2022-11-05T22:26:55.222Z,3.30
2022-11-05T22:29:22.137Z,3.47
2022-11-05T22:31:49.183Z,2.95
2022-11-05T22:34:16.080Z,3.40
2022-11-05T22:36:43.102Z,3.33
2022-11-05T22:39:12.101Z,3.03
2022-11-05T22:41:39.525Z,3.40
2022-11-05T22:44:06.963Z,3.28
2022-11-05T22:46:34.246Z,3.30
2022-11-05T22:49:01.299Z,2.80
2022-11-05T22:51:33.825Z,2.60
2022-11-05T22:54:02.247Z,3.22
2022-11-05T22:56:32.234Z,3.10
2022-11-05T22:59:00.098Z,2.78
2022-11-05T23:01:27.880Z,3.13
2022-11-05T23:03:56.397Z,2.88
2022-11-05T23:06:44.112Z,2.60
2022-11-05T23:09:35.607Z,2.88
2022-11-05T23:12:04.789Z,3.15
2022-11-05T23:14:31.690Z,2.70
2022-11-05T23:17:17.007Z,2.78
2022-11-05T23:20:02.618Z,2.97
2022-11-05T23:22:49.925Z,2.60
2022-11-05T23:25:20.253Z,3.05
2022-11-05T23:27:49.426Z,2.70
2022-11-05T23:30:21.958Z,3.10
2022-11-05T23:32:49.543Z,2.80
2022-11-05T23:35:17.339Z,2.83
2022-11-05T23:38:02.737Z,2.63
2022-11-05T23:40:52.334Z,3.30
2022-11-05T23:43:38.052Z,2.85
2022-11-05T23:46:23.756Z,2.75
2022-11-05T23:48:50.868Z,3.13
2022-11-05T23:51:18.106Z,2.30
2022-11-05T23:53:44.953Z,2.60
2022-11-05T23:56:14.729Z,2.67
2022-11-05T23:58:42.535Z,2.65
